Time;durP1;ratioP1;P1;durP2;ratioP2;P2;SDS_P1;SDS_P2;PMS_P1;PMS_P2;Temp;Humidity;BMP_temperature;BMP_pressure;BME280_temperature;BME280_humidity;BME280_pressure;Samples;Min_cycle;Max_cycle;Signal;HPM_P1;HPM_P2
2022/07/29 05:36:54;;;;;;;;;7.50;7.50;;;;;21.08;48.08;101399.31;2384102;28;45924;-79
2022/07/29 05:38:04;;;;;;;;;11.00;10.50;;;;;21.12;48.64;101400.81;2389500;28;46118;-81
2022/07/29 05:39:15;;;;;;;;;11.00;11.00;;;;;21.17;48.27;101392.47;2383892;28;45441;-82
2022/07/29 05:40:25;;;;;;;;;9.50;9.50;;;;;21.18;48.88;101398.69;2387465;28;45404;-82
2022/07/29 05:41:35;;;;;;;;;12.50;10.00;;;;;21.21;48.46;101388.63;2383596;28;45322;-81
2022/07/29 05:42:46;;;;;;;;;9.00;8.25;;;;;21.24;48.15;101393.75;2390568;28;45443;-82
2022/07/29 05:43:56;;;;;;;;;11.00;10.00;;;;;21.28;47.96;101398.91;2392024;28;44720;-81
2022/07/29 05:45:07;;;;;;;;;9.75;7.50;;;;;21.29;48.13;101393.44;2377542;28;47555;-81
2022/07/29 05:46:17;;;;;;;;;9.25;7.75;;;;;21.32;48.74;101400.41;2385409;28;44707;-80
2022/07/29 05:47:28;;;;;;;;;11.75;10.25;;;;;21.34;48.76;101399.34;2388545;28;45245;-81
2022/07/29 05:48:38;;;;;;;;;8.50;8.50;;;;;21.35;47.89;101398.38;2392183;28;45195;-84
2022/07/29 05:49:49;;;;;;;;;10.75;9.25;;;;;21.39;48.29;101403.50;2388695;28;47086;-84
2022/07/29 05:50:59;;;;;;;;;10.25;10.00;;;;;21.41;47.93;101407.78;2382812;28;45393;-81
2022/07/29 05:52:10;;;;;;;;;9.00;8.25;;;;;21.41;47.86;101407.78;2391376;28;45977;-81
2022/07/29 05:53:20;;;;;;;;;10.00;10.00;;;;;21.45;47.92;101411.13;2385635;28;44762;-81
2022/07/29 05:54:30;;;;;;;;;10.00;9.25;;;;;21.46;48.31;101410.13;2386934;28;45437;-80
2022/07/29 05:55:41;;;;;;;;;8.25;8.25;;;;;21.50;48.44;101414.31;2392040;28;45357;-80
2022/07/29 05:56:51;;;;;;;;;12.00;9.00;;;;;21.50;48.10;101406.31;2389033;28;46344;-81
2022/07/29 05:58:02;;;;;;;;;11.50;9.50;;;;;21.53;48.18;101415.94;2388377;28;45493;-81
2022/07/29 05:59:12;;;;;;;;;10.50;8.25;;;;;21.55;47.69;101408.66;2388285;28;46042;-81
2022/07/29 06:00:23;;;;;;;;;10.50;9.00;;;;;21.56;48.44;101413.03;2392301;28;45384;-81
2022/07/29 06:01:33;;;;;;;;;9.75;9.25;;;;;21.59;48.62;101410.16;2391410;28;47097;-79
2022/07/29 06:02:43;;;;;;;;;10.50;8.75;;;;;21.61;48.49;101412.75;2392499;28;44775;-81
2022/07/29 06:03:54;;;;;;;;;9.25;9.00;;;;;21.64;48.51;101415.16;2389891;28;45347;-80
2022/07/29 06:05:04;;;;;;;;;14.25;11.00;;;;;21.66;48.74;101418.59;2387581;28;44628;-80
2022/07/29 06:06:15;;;;;;;;;11.00;9.25;;;;;21.69;48.31;101418.38;2373419;28;47234;-80
2022/07/29 06:07:25;;;;;;;;;11.25;9.75;;;;;21.72;48.87;101418.19;2377789;28;44781;-83
2022/07/29 06:08:36;;;;;;;;;9.75;8.00;;;;;21.72;48.42;101418.19;2392594;28;45376;-80
2022/07/29 06:09:46;;;;;;;;;10.00;10.00;;;;;21.76;48.80;101421.47;2392219;28;45440;-80
2022/07/29 06:10:57;;;;;;;;;10.00;9.25;;;;;21.78;49.44;101422.25;2391333;28;46273;-81
2022/07/29 06:12:07;;;;;;;;;12.25;9.25;;;;;21.84;49.35;101426.28;2388358;28;45447;-80
2022/07/29 06:13:18;;;;;;;;;10.00;10.00;;;;;21.85;49.29;101428.88;2394736;28;45254;-79
2022/07/29 06:14:28;;;;;;;;;12.50;11.00;;;;;21.88;48.49;101433.16;2389049;28;45861;-79
2022/07/29 06:15:38;;;;;;;;;8.75;8.00;;;;;21.92;48.52;101434.69;2389259;28;46595;-78
2022/07/29 06:16:49;;;;;;;;;8.50;8.00;;;;;21.95;48.18;101441.63;2394288;28;45184;-79
2022/07/29 06:17:59;;;;;;;;;11.00;10.00;;;;;21.98;48.34;101441.41;2393366;28;45319;-79
2022/07/29 06:19:09;;;;;;;;;10.25;7.50;;;;;21.99;48.93;101443.97;2392936;28;45558;-79
2022/07/29 06:20:20;;;;;;;;;10.25;9.25;;;;;22.03;49.20;101436.56;2390828;28;45470;-79
2022/07/29 06:21:30;;;;;;;;;9.75;8.00;;;;;22.06;49.45;101439.03;2391961;28;45420;-79
2022/07/29 06:22:41;;;;;;;;;13.00;10.00;;;;;22.10;48.81;101437.84;2386572;28;45462;-79
2022/07/29 06:23:51;;;;;;;;;11.75;11.00;;;;;22.13;48.04;101437.63;2385551;28;45150;-79
2022/07/29 06:25:03;;;;;;;;;12.00;10.00;;;;;22.18;48.66;101439.97;2393347;28;45340;-79
2022/07/29 06:26:13;;;;;;;;;12.50;8.25;;;;;22.22;48.51;101440.63;2394040;28;45450;-78
2022/07/29 06:27:24;;;;;;;;;13.25;8.75;;;;;22.24;48.18;101439.56;2390271;28;45445;-78
2022/07/29 06:28:34;;;;;;;;;14.50;9.50;;;;;22.30;48.15;101442.75;2385245;28;45449;-78
2022/07/29 06:29:44;;;;;;;;;8.50;8.00;;;;;22.31;48.22;101439.09;2385261;28;46293;-78
2022/07/29 06:30:55;;;;;;;;;12.00;9.75;;;;;22.35;47.82;101441.44;2387694;28;45363;-78
2022/07/29 06:32:06;;;;;;;;;10.75;10.25;;;;;22.37;48.18;101433.31;2388592;28;45380;-78
2022/07/29 06:33:18;;;;;;;;;11.50;10.50;;;;;22.41;47.70;101431.25;2394868;28;44745;-78
2022/07/29 06:34:29;;;;;;;;;13.75;11.75;;;;;22.43;47.20;101432.00;2394182;28;45498;-78
2022/07/29 06:35:40;;;;;;;;;12.00;11.00;;;;;22.45;47.40;101430.91;2393725;28;45156;-78
2022/07/29 06:36:52;;;;;;;;;15.50;10.00;;;;;22.47;46.90;101430.81;2390073;28;45351;-78
2022/07/29 06:38:03;;;;;;;;;12.25;10.75;;;;;22.52;47.18;101435.84;2391309;28;45717;-79
2022/07/29 06:39:13;;;;;;;;;14.00;10.50;;;;;22.53;47.37;101434.84;2394120;28;45380;-78
2022/07/29 06:41:52;;;;;;;;;11.00;11.00;;;;;22.57;47.22;101433.69;2394480;28;45306;-78
2022/07/29 06:43:03;;;;;;;;;16.50;9.25;;;;;22.58;48.06;101430.88;2394712;28;45278;-78
2022/07/29 06:44:14;;;;;;;;;14.25;12.00;;;;;22.62;46.06;101436.00;2380912;28;47202;-78
2022/07/29 06:45:24;;;;;;;;;11.00;11.00;;;;;22.63;46.96;101433.22;2384194;28;45466;-78
2022/07/29 06:46:34;;;;;;;;;14.00;12.00;;;;;22.65;47.31;101433.09;2385837;28;46422;-78
2022/07/29 06:47:45;;;;;;;;;14.00;12.25;;;;;22.67;45.72;101434.69;2390820;28;45377;-78
2022/07/29 06:48:55;;;;;;;;;11.25;10.25;;;;;22.69;44.60;101443.50;2391467;28;46291;-78
2022/07/29 06:50:06;;;;;;;;;10.75;10.75;;;;;22.70;44.38;101437.19;2390817;28;45540;-79
2022/07/29 06:51:17;;;;;;;;;15.75;14.00;;;;;22.72;45.75;101438.91;2387576;28;46150;-79
2022/07/29 06:52:27;;;;;;;;;12.00;11.00;;;;;22.73;45.05;101443.28;2386500;28;45227;-79
2022/07/29 06:53:38;;;;;;;;;10.75;10.50;;;;;22.76;44.48;101443.06;2386012;28;45278;-78
2022/07/29 06:54:48;;;;;;;;;10.50;10.50;;;;;22.78;44.77;101441.09;2386249;28;45172;-78
2022/07/29 06:56:01;;;;;;;;;11.50;10.75;;;;;22.79;44.70;101438.31;2387209;28;46205;-79
2022/07/29 06:57:11;;;;;;;;;13.75;10.50;;;;;22.83;44.24;101441.63;2386279;28;44830;-78
2022/07/29 06:58:21;;;;;;;;;10.75;10.75;;;;;22.84;44.51;101437.97;2388857;28;45417;-78
2022/07/29 06:59:32;;;;;;;;;12.25;10.50;;;;;22.86;43.99;101438.72;2394592;28;44784;-78
2022/07/29 07:00:42;;;;;;;;;14.50;12.25;;;;;22.89;43.65;101451.03;2390486;28;45575;-78
2022/07/29 07:01:52;;;;;;;;;16.25;11.50;;;;;22.91;44.01;101449.09;2389586;28;45242;-78
2022/07/29 07:03:03;;;;;;;;;14.75;11.00;;;;;22.95;44.43;101449.72;2392049;28;46087;-78
2022/07/29 07:04:14;;;;;;;;;14.00;10.25;;;;;22.96;43.11;101454.13;2384732;28;45275;-78
2022/07/29 07:05:24;;;;;;;;;7.75;7.00;;;;;22.96;42.89;101449.63;2384927;28;46387;-78
2022/07/29 07:06:34;;;;;;;;;14.00;11.50;;;;;22.99;42.80;101456.56;2384056;28;45235;-78
2022/07/29 07:07:45;;;;;;;;;13.00;9.50;;;;;23.00;43.01;101445.72;2384258;28;48195;-78
2022/07/29 07:08:55;;;;;;;;;12.00;11.00;;;;;23.03;42.71;101453.53;2384771;28;45343;-79
2022/07/29 07:10:06;;;;;;;;;11.50;11.00;;;;;23.04;43.08;101452.56;2384986;28;45350;-79
2022/07/29 07:11:16;;;;;;;;;13.00;10.00;;;;;23.07;42.10;101456.81;2385451;28;45271;-79
2022/07/29 07:12:27;;;;;;;;;13.25;10.25;;;;;23.08;41.74;101455.00;2392549;28;48103;-79
2022/07/29 07:13:37;;;;;;;;;7.25;7.25;;;;;23.09;41.99;101457.56;2393708;28;44636;-79
2022/07/29 07:14:48;;;;;;;;;10.50;8.75;;;;;23.11;41.78;101455.63;2393842;28;45236;-79
2022/07/29 07:15:58;;;;;;;;;9.75;9.25;;;;;23.14;41.47;101454.53;2394442;28;44624;-79
2022/07/29 07:17:08;;;;;;;;;13.00;10.25;;;;;23.14;41.83;101455.38;2394363;28;45329;-78
2022/07/29 07:18:19;;;;;;;;;11.25;9.25;;;;;23.20;40.92;101458.59;2394587;28;45132;-78
2022/07/29 07:19:29;;;;;;;;;13.75;11.00;;;;;23.20;40.79;101458.59;2383586;28;47188;-78
2022/07/29 07:20:40;;;;;;;;;10.50;8.50;;;;;23.24;41.24;101458.22;2383253;28;45260;-78
2022/07/29 07:21:50;;;;;;;;;11.25;10.00;;;;;23.25;40.81;101459.09;2392928;28;45188;-79
2022/07/29 07:23:00;;;;;;;;;7.25;7.25;;;;;23.29;41.33;101460.56;2394405;28;45226;-78
2022/07/29 07:24:11;;;;;;;;;8.00;8.00;;;;;23.31;41.34;101458.59;2385924;28;45524;-79
2022/07/29 07:25:21;;;;;;;;;8.50;8.50;;;;;23.35;41.04;101454.75;2385170;28;45148;-79
2022/07/29 07:26:32;;;;;;;;;8.00;7.25;;;;;23.37;41.10;101458.16;2387395;28;46742;-78
2022/07/29 07:27:43;;;;;;;;;11.00;9.00;;;;;23.40;40.57;101458.88;2390527;28;45353;-78
2022/07/29 07:28:53;;;;;;;;;8.50;8.00;;;;;23.41;40.36;101456.06;2391120;28;45720;-78
2022/07/29 07:30:05;;;;;;;;;8.00;8.00;;;;;23.45;40.79;101459.38;2388194;28;45330;-78
2022/07/29 07:31:16;;;;;;;;;9.00;9.00;;;;;23.49;40.29;101466.25;2394028;28;45570;-79
2022/07/29 07:32:26;;;;;;;;;10.25;8.75;;;;;23.53;40.36;101462.38;2388404;28;45583;-78
2022/07/29 07:33:37;;;;;;;;;10.75;7.50;;;;;23.56;40.25;101466.63;2394327;28;46396;-78
2022/07/29 07:34:47;;;;;;;;;8.75;7.25;;;;;23.60;40.37;101463.59;2394214;28;44610;-78
2022/07/29 07:35:58;;;;;;;;;12.00;8.00;;;;;23.62;39.72;101467.97;2381055;28;46312;-78
2022/07/29 07:37:09;;;;;;;;;8.75;8.00;;;;;23.65;39.93;101462.38;2377610;28;45559;-78
2022/07/29 07:38:19;;;;;;;;;11.75;8.25;;;;;23.68;40.07;101467.53;2384813;28;45706;-78
2022/07/29 07:39:29;;;;;;;;;10.00;8.25;;;;;23.71;40.24;101465.44;2379851;28;45493;-78
2022/07/29 07:40:40;;;;;;;;;8.25;7.25;;;;;23.74;39.69;101463.47;2385385;28;45633;-78
2022/07/29 07:41:51;;;;;;;;;7.25;7.25;;;;;23.78;39.46;101463.13;2389479;28;44799;-78
2022/07/29 07:43:01;;;;;;;;;11.50;9.00;;;;;23.80;39.39;101461.19;2394124;28;45208;-78
2022/07/29 07:44:12;;;;;;;;;9.00;8.75;;;;;23.86;39.22;101467.03;2383985;28;45327;-78
2022/07/29 07:45:22;;;;;;;;;7.75;7.00;;;;;23.90;39.00;101465.84;2386803;28;46090;-78
2022/07/29 07:46:33;;;;;;;;;8.75;7.25;;;;;23.94;38.92;101470.84;2385982;28;45320;-78
2022/07/29 07:47:43;;;;;;;;;8.00;8.00;;;;;23.97;39.18;101472.44;2384750;28;46350;-78
2022/07/29 07:48:54;;;;;;;;;6.50;4.75;;;;;23.99;38.75;101467.78;2384329;28;45291;-78
2022/07/29 07:50:09;;;;;;;;;7.75;7.00;;;;;24.02;38.63;101464.00;2384030;28;46045;-78
2022/07/29 07:51:20;;;;;;;;;7.25;6.50;;;;;24.03;38.56;101466.56;2384624;28;45313;-78
2022/07/29 07:52:30;;;;;;;;;11.00;7.50;;;;;24.08;37.97;101470.69;2390747;28;45553;-78
2022/07/29 07:53:40;;;;;;;;;6.50;6.00;;;;;24.11;38.42;101465.09;2394232;28;45206;-78
2022/07/29 07:54:51;;;;;;;;;7.75;7.75;;;;;24.12;37.95;101466.81;2394136;28;45291;-78
2022/07/29 07:56:02;;;;;;;;;9.00;6.50;;;;;24.15;38.34;101461.19;2394223;28;45241;-78
2022/07/29 07:57:13;;;;;;;;;6.25;6.25;;;;;24.20;38.02;101469.72;2378573;28;47437;-78
2022/07/29 07:58:24;;;;;;;;;8.50;8.00;;;;;24.22;38.35;101461.56;2383028;28;44830;-81
2022/07/29 07:59:34;;;;;;;;;8.25;7.00;;;;;24.25;38.82;101467.56;2394091;28;45445;-78
2022/07/29 08:00:44;;;;;;;;;6.75;6.25;;;;;24.30;37.78;101472.53;2394310;28;45330;-78
2022/07/29 08:01:55;;;;;;;;;7.00;5.00;;;;;24.31;37.63;101471.59;2388764;28;46433;-78
2022/07/29 08:03:05;;;;;;;;;5.25;5.25;;;;;24.33;37.60;101472.31;2387367;28;44795;-78
2022/07/29 08:04:16;;;;;;;;;7.75;5.25;;;;;24.36;37.53;101471.22;2374769;28;47391;-78
2022/07/29 08:05:26;;;;;;;;;8.50;8.00;;;;;24.38;37.46;101477.31;2377344;28;45375;-78
2022/07/29 08:06:37;;;;;;;;;8.25;7.00;;;;;24.42;37.79;101478.75;2384580;28;45437;-79
2022/07/29 08:07:47;;;;;;;;;6.75;5.25;;;;;24.44;37.58;101471.44;2384816;28;45220;-78
2022/07/29 08:08:58;;;;;;;;;7.25;6.00;;;;;24.47;37.25;101475.72;2384870;28;45258;-78
2022/07/29 08:10:08;;;;;;;;;5.75;4.50;;;;;24.49;36.75;101480.00;2385804;28;44735;-78
2022/07/29 08:11:20;;;;;;;;;7.00;6.00;;;;;24.52;37.29;101478.84;2392118;28;47848;-79
2022/07/29 08:12:30;;;;;;;;;4.25;4.25;;;;;24.55;37.41;101477.75;2393406;28;45186;-78
2022/07/29 08:13:40;;;;;;;;;8.50;8.00;;;;;24.54;36.50;101482.31;2388344;28;46644;-79
2022/07/29 08:14:51;;;;;;;;;6.50;6.50;;;;;24.56;36.62;101480.34;2384794;28;45219;-79
2022/07/29 08:16:01;;;;;;;;;11.25;6.00;;;;;24.57;37.06;101470.44;2384502;28;45310;-78
2022/07/29 08:17:11;;;;;;;;;6.25;6.25;;;;;24.61;36.86;101479.97;2384015;28;45295;-79
2022/07/29 08:18:22;;;;;;;;;9.50;7.50;;;;;24.63;36.55;101472.63;2383961;28;45490;-79
2022/07/29 08:19:32;;;;;;;;;6.75;6.50;;;;;24.65;36.62;101475.16;2385036;28;45473;-79
2022/07/29 08:20:43;;;;;;;;;6.00;5.75;;;;;24.67;36.61;101476.75;2393453;28;45225;-79
2022/07/29 08:21:53;;;;;;;;;7.75;7.75;;;;;24.68;36.56;101475.78;2394051;28;44743;-79
2022/07/29 08:23:05;;;;;;;;;7.75;7.00;;;;;24.71;36.16;101483.59;2383052;28;47156;-79
2022/07/29 08:25:45;;;;;;;;;7.75;7.00;;;;;24.74;36.49;101482.50;2388636;28;45498;-79
2022/07/29 08:26:55;;;;;;;;;10.25;7.50;;;;;24.76;36.36;101479.69;2393975;28;45243;-79
2022/07/29 08:28:06;;;;;;;;;9.25;8.50;;;;;24.77;36.31;101476.84;2393438;28;46483;-79
2022/07/29 08:29:16;;;;;;;;;9.75;6.00;;;;;24.80;36.24;101476.59;2393180;28;44811;-79
2022/07/29 08:30:26;;;;;;;;;8.00;6.50;;;;;24.83;36.16;101476.34;2392817;28;46177;-79
2022/07/29 08:31:37;;;;;;;;;5.50;4.00;;;;;24.86;36.00;101480.63;2393994;28;45139;-79
2022/07/29 08:32:50;;;;;;;;;11.00;7.00;;;;;24.87;35.81;101476.06;2393238;28;46462;-79
2022/07/29 08:34:00;;;;;;;;;8.00;6.75;;;;;24.89;35.61;101471.47;2393978;28;45222;-79
2022/07/29 08:35:11;;;;;;;;;9.25;7.25;;;;;24.91;36.04;101477.56;2393792;28;46091;-78
2022/07/29 08:36:21;;;;;;;;;11.00;8.00;;;;;24.93;35.56;101478.28;2392948;28;44632;-79
2022/07/29 08:37:31;;;;;;;;;8.00;8.00;;;;;24.97;36.01;101486.94;2385326;28;46303;-79
2022/07/29 08:38:42;;;;;;;;;8.50;7.00;;;;;24.99;36.07;101487.69;2388447;28;44779;-79
2022/07/29 08:39:52;;;;;;;;;6.50;6.00;;;;;25.04;35.78;101485.47;2393858;28;45421;-79
2022/07/29 08:41:03;;;;;;;;;7.75;7.00;;;;;25.04;35.53;101486.31;2387747;28;45192;-79
2022/07/29 08:42:13;;;;;;;;;8.50;8.50;;;;;25.08;36.05;101480.69;2384371;28;45538;-79
2022/07/29 08:43:24;;;;;;;;;6.50;6.50;;;;;25.11;35.90;101484.00;2393736;28;44823;-79
2022/07/29 08:44:35;;;;;;;;;6.50;6.50;;;;;25.12;35.58;101480.31;2391165;28;46484;-80
2022/07/29 08:45:47;;;;;;;;;8.75;8.00;;;;;25.17;35.42;101488.84;2393694;28;45395;-79
2022/07/29 08:46:58;;;;;;;;;7.00;5.00;;;;;25.19;35.88;101485.19;2393289;28;46663;-79
2022/07/29 08:48:08;;;;;;;;;7.00;7.00;;;;;25.20;35.65;101478.81;2393770;28;45354;-79
2022/07/29 08:49:18;;;;;;;;;6.25;6.25;;;;;25.21;35.58;101483.22;2393761;28;46200;-79
2022/07/29 08:50:30;;;;;;;;;4.00;4.00;;;;;25.23;35.28;101479.41;2393638;28;44681;-79
2022/07/29 08:51:41;;;;;;;;;7.25;6.00;;;;;25.25;35.39;101482.81;2393529;28;46417;-79
2022/07/29 08:52:52;;;;;;;;;7.75;6.25;;;;;25.26;35.39;101479.13;2391985;28;45239;-78
2022/07/29 08:54:02;;;;;;;;;5.75;5.25;;;;;25.28;35.07;101482.56;2391444;28;46353;-78
2022/07/29 08:55:15;;;;;;;;;5.75;5.25;;;;;25.29;34.60;101475.31;2391674;28;44778;-78
2022/07/29 08:56:26;;;;;;;;;6.75;6.00;;;;;25.32;35.14;101475.06;2384271;28;45362;-78
2022/07/29 08:57:38;;;;;;;;;8.00;6.00;;;;;25.34;35.51;101478.47;2384613;28;45301;-78
2022/07/29 08:58:49;;;;;;;;;9.25;6.75;;;;;25.35;34.90;101474.81;2390355;28;45294;-78
2022/07/29 09:00:02;;;;;;;;;5.00;5.00;;;;;25.38;34.72;101474.56;2393695;28;45493;-78
2022/07/29 09:01:20;;;;;;;;;6.50;6.50;;;;;25.39;34.69;101472.72;2393737;28;46514;-78
2022/07/29 09:02:35;;;;;;;;;6.00;4.75;;;;;25.44;35.57;101477.69;2389326;28;45171;-78
2022/07/29 09:03:46;;;;;;;;;5.25;5.25;;;;;25.44;35.04;101481.25;2386252;28;45527;-78
2022/07/29 09:05:00;;;;;;;;;6.75;6.00;;;;;25.45;34.56;101476.72;2392234;28;45323;-79
2022/07/29 09:06:14;;;;;;;;;7.75;6.75;;;;;25.46;34.33;101476.56;2393224;28;46316;-79
2022/07/29 09:07:24;;;;;;;;;8.00;6.50;;;;;25.47;34.92;101482.81;2393649;28;45242;-78
2022/07/29 09:08:34;;;;;;;;;6.25;5.25;;;;;25.48;34.73;101481.84;2393623;28;45255;-78
2022/07/29 09:09:46;;;;;;;;;6.00;5.00;;;;;25.51;34.64;101478.88;2393583;28;45419;-78
2022/07/29 09:10:58;;;;;;;;;7.25;5.75;;;;;25.51;34.66;101484.25;2393431;28;46526;-78
2022/07/29 09:12:11;;;;;;;;;5.00;5.00;;;;;25.51;34.70;101478.88;2393659;28;45223;-78
2022/07/29 09:13:22;;;;;;;;;7.50;7.50;;;;;25.52;34.32;101480.59;2383571;28;46471;-78
2022/07/29 09:14:32;;;;;;;;;4.50;4.25;;;;;25.53;33.90;101481.44;2383112;28;45528;-78
2022/07/29 09:15:44;;;;;;;;;6.75;6.75;;;;;25.52;34.58;101469.81;2384266;28;46016;-78
2022/07/29 09:16:56;;;;;;;;;6.75;6.00;;;;;25.54;34.64;101481.31;2391423;28;45461;-78
2022/07/29 09:18:06;;;;;;;;;6.25;6.25;;;;;25.54;34.43;101475.06;2393519;28;46451;-78
2022/07/29 09:19:29;;;;;;;;;8.50;7.25;;;;;25.55;34.84;101482.16;2383154;28;45267;-78
2022/07/29 09:22:30;;;;;;;;;5.25;5.25;;;;;25.57;34.98;101480.19;2346601;29;45381;-78
2022/07/29 09:23:42;;;;;;;;;4.00;4.00;;;;;25.56;34.16;101471.25;2346245;29;45330;-79
2022/07/29 09:24:54;;;;;;;;;7.00;6.25;;;;;25.55;34.26;101474.94;2374374;28;44874;-78
2022/07/29 09:26:05;;;;;;;;;6.50;5.75;;;;;25.56;35.11;101476.63;2393439;28;45372;-78
2022/07/29 09:27:25;;;;;;;;;5.00;5.00;;;;;25.60;35.50;101477.25;2390304;28;45467;-79
2022/07/29 09:28:41;;;;;;;;;6.25;6.25;;;;;25.60;35.62;101478.09;2384535;28;47046;-78
2022/07/29 09:30:07;;;;;;;;;5.75;4.75;;;;;25.60;35.72;101471.84;2393256;28;45324;-78
2022/07/29 09:31:17;;;;;;;;;6.25;6.25;;;;;25.60;35.54;101472.72;2391809;28;46389;-78
2022/07/29 09:32:29;;;;;;;;;6.00;6.00;;;;;25.60;35.45;101475.41;2393546;28;45287;-78
2022/07/29 09:33:41;;;;;;;;;5.00;4.00;;;;;25.60;34.63;101472.72;2393528;28;45543;-78
2022/07/29 09:35:30;;;;;;;;;4.75;4.75;;;;;25.61;33.89;101474.41;2393450;28;45374;-78
2022/07/29 09:36:41;;;;;;;;;4.50;4.50;;;;;25.61;34.33;101479.78;2393180;28;46528;-78
2022/07/29 09:37:52;;;;;;;;;7.00;5.50;;;;;25.62;34.36;101473.44;2393367;28;44597;-78
2022/07/29 09:39:03;;;;;;;;;7.25;6.00;;;;;25.62;34.35;101472.56;2393333;28;45457;-79
2022/07/29 09:40:15;;;;;;;;;5.25;5.00;;;;;25.65;34.72;101475.00;2393522;28;44775;-78
2022/07/29 09:41:27;;;;;;;;;4.75;4.75;;;;;25.63;34.78;101467.03;2393418;28;46170;-78
2022/07/29 09:42:37;;;;;;;;;4.75;4.75;;;;;25.65;34.72;101476.84;2393446;28;45274;-78
2022/07/29 09:43:57;;;;;;;;;6.50;5.50;;;;;25.68;34.35;101473.88;2380331;28;46315;-78
2022/07/29 09:45:09;;;;;;;;;7.50;7.00;;;;;25.69;34.01;101476.44;2383292;28;44779;-78
2022/07/29 09:46:19;;;;;;;;;7.00;6.25;;;;;25.71;34.70;101462.84;2393057;28;45485;-79
2022/07/29 09:47:48;;;;;;;;;6.25;6.25;;;;;25.73;35.09;101466.31;2393609;28;45171;-79
2022/07/29 09:49:11;;;;;;;;;6.50;6.50;;;;;25.76;34.86;101470.53;2393523;28;45367;-79
2022/07/29 09:50:23;;;;;;;;;5.00;5.00;;;;;25.78;34.90;101469.41;2384870;28;45215;-79
2022/07/29 09:51:34;;;;;;;;;6.25;6.25;;;;;25.80;35.01;101461.22;2383729;28;45444;-78
2022/07/29 09:52:50;;;;;;;;;7.75;6.00;;;;;25.82;35.24;101475.41;2391325;28;46121;-78
2022/07/29 09:54:03;;;;;;;;;8.50;7.25;;;;;25.82;34.70;101467.31;2393237;28;45292;-78
2022/07/29 09:55:15;;;;;;;;;5.50;5.50;;;;;25.86;34.48;101471.44;2386744;28;44641;-78
2022/07/29 09:56:41;;;;;;;;;4.25;4.25;;;;;25.90;34.44;101472.03;2384006;28;45325;-78
2022/07/29 09:57:51;;;;;;;;;7.25;5.00;;;;;25.90;33.66;101469.34;2384209;28;45179;-78
2022/07/29 09:59:06;;;;;;;;;4.00;4.00;;;;;25.92;34.11;101476.31;2383880;28;46277;-78
2022/07/29 10:00:19;;;;;;;;;6.00;4.00;;;;;25.96;34.45;101474.19;2384037;28;45470;-78
2022/07/29 10:01:29;;;;;;;;;4.00;4.00;;;;;25.98;34.44;101463.31;2384100;28;46243;-78
2022/07/29 10:02:43;;;;;;;;;6.00;5.00;;;;;25.98;33.72;101463.31;2384167;28;45167;-78
2022/07/29 10:03:54;;;;;;;;;4.75;4.75;;;;;26.00;33.76;101472.91;2389705;28;46743;-78
2022/07/29 10:05:15;;;;;;;;;5.75;5.25;;;;;26.02;34.17;101459.34;2393353;28;45427;-79
2022/07/29 10:06:25;;;;;;;;;8.00;5.50;;;;;26.05;33.66;101467.97;2393176;28;46525;-78
2022/07/29 10:08:02;;;;;;;;;4.00;4.00;;;;;26.09;33.16;101465.88;2393316;28;44760;-78
2022/07/29 10:09:13;;;;;;;;;7.00;6.00;;;;;26.12;33.65;101468.31;2389434;28;46508;-78
2022/07/29 10:10:28;;;;;;;;;6.00;6.00;;;;;26.11;33.50;101463.91;2393283;28;45234;-79
2022/07/29 10:11:38;;;;;;;;;6.25;5.75;;;;;26.16;34.48;101461.66;2393147;28;45389;-79
2022/07/29 10:12:57;;;;;;;;;5.00;5.00;;;;;26.19;33.71;101455.16;2393404;28;45167;-79
2022/07/29 10:14:08;;;;;;;;;4.25;4.25;;;;;26.24;33.40;101455.59;2388955;28;45403;-78
2022/07/29 10:15:20;;;;;;;;;7.00;7.00;;;;;26.25;34.41;101454.56;2393539;28;44685;-78
2022/07/29 10:16:33;;;;;;;;;6.00;5.25;;;;;26.28;33.84;101466.94;2392962;28;46435;-78
2022/07/29 10:17:45;;;;;;;;;4.00;4.00;;;;;26.31;34.11;101463.97;2384741;28;45405;-78
2022/07/29 10:18:55;;;;;;;;;5.00;5.00;;;;;26.32;32.96;101464.81;2383663;28;45365;-79
2022/07/29 10:20:07;;;;;;;;;5.00;5.00;;;;;26.33;33.45;101464.69;2383963;28;45208;-79
2022/07/29 10:21:17;;;;;;;;;6.50;6.50;;;;;26.35;34.03;101469.94;2383559;28;45275;-79
2022/07/29 10:22:28;;;;;;;;;6.00;6.00;;;;;26.36;33.43;101461.72;2383917;28;45240;-79
2022/07/29 10:23:40;;;;;;;;;4.00;4.00;;;;;26.39;33.93;101465.97;2384133;28;45434;-79
2022/07/29 10:24:51;;;;;;;;;5.00;4.00;;;;;26.39;33.94;101465.97;2387020;28;45354;-78
2022/07/29 10:26:02;;;;;;;;;3.50;3.50;;;;;26.41;33.16;101466.69;2382704;28;47504;-79
2022/07/29 10:27:13;;;;;;;;;7.00;5.75;;;;;26.43;33.20;101464.72;2382549;28;45449;-78
2022/07/29 10:28:24;;;;;;;;;5.00;5.00;;;;;26.44;32.63;101462.88;2383727;28;45398;-79
2022/07/29 10:29:36;;;;;;;;;4.25;4.25;;;;;26.47;33.13;101459.94;2383998;28;45252;-78
2022/07/29 10:30:50;;;;;;;;;5.25;5.25;;;;;26.49;32.32;101472.28;2383698;28;45254;-79
2022/07/29 10:32:24;;;;;;;;;5.75;5.00;;;;;26.53;32.21;101467.44;2383854;28;45216;-81
2022/07/29 10:33:38;;;;;;;;;4.75;4.75;;;;;26.59;32.54;101468.75;2383979;28;46275;-79
2022/07/29 10:34:58;;;;;;;;;5.75;5.75;;;;;26.62;33.01;101476.53;2384040;28;45163;-79
2022/07/29 10:36:35;;;;;;;;;4.25;4.25;;;;;26.66;33.16;101471.72;2383427;28;46551;-79
2022/07/29 10:38:04;;;;;;;;;5.00;5.00;;;;;26.68;33.00;101465.19;2384022;28;45357;-79
2022/07/29 10:39:14;;;;;;;;;6.00;6.00;;;;;26.70;33.33;101468.59;2389712;28;46440;-78
2022/07/29 10:42:19;;;;;;;;;6.00;6.00;;;;;26.77;32.57;101473.44;2393003;28;45428;-78
2022/07/29 10:43:35;;;;;;;;;5.75;5.75;;;;;26.77;33.00;101470.75;2393295;28;45263;-79
2022/07/29 10:44:47;;;;;;;;;3.75;3.75;;;;;26.81;33.13;101478.41;2384696;28;45385;-79
2022/07/29 10:46:00;;;;;;;;;4.50;3.50;;;;;26.84;32.77;101475.41;2384052;28;45412;-79
2022/07/29 10:47:23;;;;;;;;;5.00;5.00;;;;;26.88;32.23;101473.31;2384047;28;45331;-79
2022/07/29 10:48:34;;;;;;;;;4.50;4.00;;;;;26.89;32.30;101472.28;2393248;28;44747;-79
2022/07/29 10:49:57;;;;;;;;;6.50;6.00;;;;;26.94;31.68;101474.59;2392860;28;45348;-78
2022/07/29 10:51:08;;;;;;;;;6.25;5.00;;;;;26.94;32.69;101475.41;2382614;28;45245;-79
2022/07/29 10:52:19;;;;;;;;;5.00;5.00;;;;;26.97;32.17;101467.06;2385761;28;45293;-79
2022/07/29 10:53:49;;;;;;;;;5.00;5.00;;;;;27.03;32.17;101472.88;2389721;28;44526;-79
2022/07/29 10:55:01;;;;;;;;;7.00;5.50;;;;;27.03;32.76;101468.34;2383650;28;45529;-79
2022/07/29 10:56:27;;;;;;;;;5.75;5.00;;;;;27.08;32.69;101467.91;2384747;28;44628;-79
2022/07/29 10:57:39;;;;;;;;;5.50;4.00;;;;;27.08;32.53;101476.88;2388185;28;45335;-79
2022/07/29 10:59:17;;;;;;;;;4.50;4.25;;;;;27.13;31.97;101472.91;2394759;28;44573;-79
2022/07/29 11:00:30;;;;;;;;;8.75;5.50;;;;;27.15;32.23;101479.00;2394469;28;46703;-79
2022/07/29 11:01:40;;;;;;;;;6.00;4.50;;;;;27.13;31.80;101475.59;2394743;28;45238;-79
2022/07/29 11:02:54;;;;;;;;;5.50;5.50;;;;;27.15;31.85;101477.16;2394480;28;46496;-79
2022/07/29 11:04:05;;;;;;;;;5.25;5.25;;;;;27.16;32.03;101484.25;2394648;28;45484;-78
2022/07/29 11:05:18;;;;;;;;;8.00;4.25;;;;;27.18;31.75;101476.03;2394345;28;45369;-79
2022/07/29 11:07:04;;;;;;;;;5.00;5.00;;;;;27.24;32.33;101472.75;2393817;28;45294;-79
2022/07/29 11:08:17;;;;;;;;;4.75;4.75;;;;;27.27;31.75;101477.00;2392327;28;45480;-79
2022/07/29 11:09:30;;;;;;;;;5.25;5.25;;;;;27.27;31.84;101475.16;2385515;28;45236;-79
2022/07/29 11:10:40;;;;;;;;;5.25;5.25;;;;;27.28;31.66;101466.09;2391206;28;45219;-79
2022/07/29 11:11:51;;;;;;;;;7.00;5.25;;;;;27.33;31.43;101472.88;2392700;28;45543;-79
2022/07/29 11:13:01;;;;;;;;;4.50;4.50;;;;;27.35;31.33;101476.28;2394537;28;45452;-79
2022/07/29 11:14:11;;;;;;;;;4.50;4.50;;;;;27.37;31.32;101472.44;2394092;28;44715;-79
2022/07/29 11:15:23;;;;;;;;;6.00;6.00;;;;;27.39;31.49;101465.06;2394339;28;46142;-79
2022/07/29 11:17:04;;;;;;;;;5.25;4.00;;;;;27.42;31.63;101462.06;2394252;28;45335;-79
2022/07/29 11:18:14;;;;;;;;;4.00;2.75;;;;;27.46;31.69;101469.88;2384220;28;46215;-79